createdAt,value
2023-03-23T00:00:02.494Z,12.4
2023-03-23T00:01:01.380Z,12.5
2023-03-23T00:02:02.191Z,12.4
2023-03-23T00:03:02.346Z,12.6
2023-03-23T00:04:02.198Z,12.5
2023-03-23T00:05:02.248Z,12.5
2023-03-23T00:06:02.123Z,12.3
2023-03-23T00:07:02.177Z,12.3
2023-03-23T00:08:02.076Z,12.3
2023-03-23T00:09:02.103Z,12.4
2023-03-23T00:10:01.956Z,12.4
2023-03-23T00:11:01.885Z,12.3
2023-03-23T00:12:02.105Z,12.4
2023-03-23T00:13:02.169Z,12.3
2023-03-23T00:14:02.081Z,12.4
2023-03-23T00:15:02.149Z,12.3
2023-03-23T00:16:04.402Z,12.2
2023-03-23T00:17:02.259Z,12.3
2023-03-23T00:18:01.557Z,12.2
2023-03-23T00:19:01.412Z,12.2
2023-03-23T00:20:01.547Z,12.3
2023-03-23T00:21:01.528Z,12.2
2023-03-23T00:22:01.622Z,12.3
2023-03-23T00:23:01.660Z,12.3
2023-03-23T00:24:01.519Z,12.3
2023-03-23T00:25:01.659Z,12.2
2023-03-23T00:26:01.583Z,12.3
2023-03-23T00:27:01.528Z,12.3
2023-03-23T00:28:01.380Z,12.2
2023-03-23T00:29:01.424Z,12.2
2023-03-23T00:30:01.445Z,12.2
2023-03-23T00:31:01.458Z,12.3
2023-03-23T00:32:01.397Z,12.2
2023-03-23T00:33:01.391Z,12.2
2023-03-23T00:34:01.542Z,12.2
2023-03-23T00:35:01.995Z,12.3
2023-03-23T00:36:01.736Z,12.2
2023-03-23T00:37:01.731Z,12.1
2023-03-23T00:38:01.791Z,12.2
2023-03-23T00:39:01.535Z,12.1
2023-03-23T00:40:01.996Z,12.2
2023-03-23T00:41:02.045Z,12.2
2023-03-23T00:42:01.916Z,12.1
2023-03-23T00:43:01.938Z,12.2
2023-03-23T00:44:01.980Z,12.2
2023-03-23T00:45:01.764Z,12.1
2023-03-23T00:46:01.731Z,12.2
2023-03-23T00:47:01.868Z,12.2
2023-03-23T00:48:01.928Z,12.1
2023-03-23T00:49:01.779Z,12.1
2023-03-23T00:50:01.838Z,12.1
2023-03-23T00:51:01.755Z,12.1
2023-03-23T00:52:01.806Z,12.1
2023-03-23T00:53:01.769Z,12.1
2023-03-23T00:54:01.933Z,12.1
2023-03-23T00:55:01.959Z,12.1
2023-03-23T00:56:01.827Z,12
2023-03-23T00:57:01.791Z,12
2023-03-23T00:58:01.819Z,12.1
2023-03-23T00:59:01.641Z,12.1
2023-03-23T01:00:05.672Z,12.1
2023-03-23T01:01:02.157Z,12.1
2023-03-23T01:02:02.156Z,12.1
2023-03-23T01:03:02.055Z,12.2
2023-03-23T01:04:02.119Z,12.1
2023-03-23T01:05:01.961Z,12.1
2023-03-23T01:06:01.902Z,12.2
2023-03-23T01:07:01.916Z,12.1
2023-03-23T01:08:01.762Z,12.1
2023-03-23T01:09:01.697Z,12.2
2023-03-23T01:10:01.719Z,12.1
2023-03-23T01:11:01.537Z,12.1
2023-03-23T01:12:01.586Z,12.2
2023-03-23T01:13:01.439Z,12.1
2023-03-23T01:14:01.494Z,12.1
2023-03-23T01:15:01.359Z,12.1
2023-03-23T01:16:01.396Z,12
2023-03-23T01:17:02.180Z,12
2023-03-23T01:18:02.105Z,12
2023-03-23T01:19:02.196Z,11.9
2023-03-23T01:20:02.049Z,12
2023-03-23T01:21:02.118Z,12.1
2023-03-23T01:22:02.294Z,12.1
2023-03-23T01:23:02.190Z,12
2023-03-23T01:24:01.401Z,12
2023-03-23T01:25:01.249Z,11.9
2023-03-23T01:26:01.966Z,12.1
2023-03-23T01:27:02.019Z,12.1
2023-03-23T01:28:01.853Z,12
2023-03-23T01:29:01.825Z,12.1
2023-03-23T01:30:01.868Z,12
2023-03-23T01:31:01.691Z,12
2023-03-23T01:32:01.368Z,12
2023-03-23T01:33:01.412Z,12
2023-03-23T01:34:01.488Z,12
2023-03-23T01:35:01.488Z,12
2023-03-23T01:36:01.391Z,11.9
2023-03-23T01:37:01.808Z,11.9
2023-03-23T01:38:01.921Z,12.1
2023-03-23T01:39:01.883Z,12
2023-03-23T01:40:01.929Z,12
2023-03-23T01:41:01.806Z,11.9
2023-03-23T01:42:01.764Z,11.9
2023-03-23T01:43:01.867Z,11.9
2023-03-23T01:44:01.756Z,11.9
2023-03-23T01:45:01.815Z,11.8
2023-03-23T01:46:01.692Z,12.1
2023-03-23T01:47:01.928Z,12
2023-03-23T01:48:01.979Z,12
2023-03-23T01:49:02.055Z,12
2023-03-23T01:50:02.018Z,12
2023-03-23T01:51:02.032Z,12
2023-03-23T01:52:01.935Z,12
2023-03-23T01:53:02.206Z,12
2023-03-23T01:54:02.269Z,12
2023-03-23T01:55:02.339Z,12
2023-03-23T01:56:01.317Z,12
2023-03-23T01:57:02.350Z,11.9
2023-03-23T01:58:01.266Z,11.9
2023-03-23T01:59:02.338Z,12
2023-03-23T02:00:02.780Z,11.9
2023-03-23T02:01:01.941Z,11.9
2023-03-23T02:02:02.189Z,11.9
2023-03-23T02:03:02.324Z,11.9
2023-03-23T02:04:02.202Z,11.9
2023-03-23T02:05:01.800Z,11.9
2023-03-23T02:06:01.665Z,11.9
2023-03-23T02:07:01.685Z,11.8
2023-03-23T02:08:01.533Z,11.9
2023-03-23T02:09:10.321Z,11.9
2023-03-23T02:10:02.378Z,11.8
2023-03-23T02:11:02.287Z,11.8
2023-03-23T02:12:02.311Z,11.8
2023-03-23T02:13:02.162Z,11.8
2023-03-23T02:14:02.274Z,12
2023-03-23T02:15:02.284Z,11.9
2023-03-23T02:16:01.393Z,11.9
2023-03-23T02:17:01.333Z,11.9
2023-03-23T02:18:01.396Z,11.9
2023-03-23T02:19:02.327Z,11.9
2023-03-23T02:20:02.234Z,11.9
2023-03-23T02:21:01.387Z,11.9
2023-03-23T02:22:02.397Z,12
2023-03-23T02:23:02.272Z,12
2023-03-23T02:24:01.405Z,12
2023-03-23T02:25:01.396Z,12
2023-03-23T02:26:01.399Z,12
2023-03-23T02:27:01.669Z,12
2023-03-23T02:28:02.040Z,12
2023-03-23T02:29:01.984Z,11.9
2023-03-23T02:30:01.902Z,11.9
2023-03-23T02:31:01.680Z,12
2023-03-23T02:32:01.775Z,12
2023-03-23T02:33:01.825Z,12
2023-03-23T02:34:01.738Z,12
2023-03-23T02:35:01.944Z,11.9
2023-03-23T02:36:02.001Z,11.9
2023-03-23T02:37:02.316Z,11.9
2023-03-23T02:38:02.214Z,11.9
2023-03-23T02:39:02.255Z,11.8
2023-03-23T02:40:01.451Z,11.9
2023-03-23T02:41:01.494Z,11.9
2023-03-23T02:42:02.260Z,11.8
2023-03-23T02:43:01.471Z,11.8
2023-03-23T02:44:01.462Z,11.9
2023-03-23T02:45:01.357Z,11.9
2023-03-23T02:46:01.362Z,11.8
2023-03-23T02:47:02.349Z,11.8
2023-03-23T02:48:02.207Z,11.8
2023-03-23T02:49:02.308Z,11.7
2023-03-23T02:50:02.255Z,11.7
2023-03-23T02:51:02.283Z,11.7
2023-03-23T02:52:01.558Z,11.8
2023-03-23T02:53:01.543Z,11.8
2023-03-23T02:54:01.427Z,11.8
2023-03-23T02:55:01.433Z,11.8
2023-03-23T02:56:01.313Z,11.7
2023-03-23T02:57:01.407Z,11.8
2023-03-23T02:58:01.370Z,11.8
2023-03-23T02:59:01.423Z,11.8
2023-03-23T03:00:02.620Z,11.8
2023-03-23T03:01:01.677Z,11.8
2023-03-23T03:02:02.160Z,11.7
2023-03-23T03:03:02.467Z,11.8
2023-03-23T03:04:01.392Z,11.8
2023-03-23T03:05:02.045Z,11.8
2023-03-23T03:06:02.329Z,11.8
2023-03-23T03:07:01.309Z,11.8
2023-03-23T03:08:01.356Z,11.8
2023-03-23T03:09:01.771Z,11.8
2023-03-23T03:10:01.707Z,11.7
2023-03-23T03:11:01.768Z,11.7
2023-03-23T03:12:01.610Z,11.7
2023-03-23T03:13:01.633Z,11.6
2023-03-23T03:14:01.628Z,11.7
2023-03-23T03:15:01.701Z,11.7
2023-03-23T03:16:01.792Z,11.7
2023-03-23T03:17:01.706Z,11.6
2023-03-23T03:18:01.704Z,11.7
2023-03-23T03:19:01.766Z,11.5
2023-03-23T03:20:01.719Z,11.6
2023-03-23T03:21:01.941Z,11.7
2023-03-23T03:22:01.650Z,11.6
2023-03-23T03:23:02.103Z,11.6
2023-03-23T03:24:02.160Z,11.6
2023-03-23T03:25:17.956Z,11.6
2023-03-23T03:26:01.685Z,11.6
2023-03-23T03:27:01.737Z,11.5
2023-03-23T03:28:02.165Z,11.6
2023-03-23T03:29:01.763Z,11.6
2023-03-23T03:30:01.822Z,11.6
2023-03-23T03:31:01.739Z,11.6
2023-03-23T03:32:01.490Z,11.5
2023-03-23T03:33:01.638Z,11.7
2023-03-23T03:34:01.486Z,11.6
2023-03-23T03:35:01.557Z,11.6
2023-03-23T03:36:01.424Z,11.6
2023-03-23T03:37:01.895Z,11.6
2023-03-23T03:38:01.926Z,11.5
2023-03-23T03:39:01.775Z,11.5
2023-03-23T03:40:01.796Z,11.6
2023-03-23T03:41:01.997Z,11.5
2023-03-23T03:42:01.644Z,11.5
2023-03-23T03:43:01.946Z,11.6
2023-03-23T03:44:01.785Z,11.6
2023-03-23T03:45:01.781Z,11.7
2023-03-23T03:46:02.029Z,11.7
2023-03-23T03:47:02.056Z,11.7
2023-03-23T03:48:01.993Z,11.6
2023-03-23T03:49:02.029Z,11.6
2023-03-23T03:50:01.530Z,11.6
2023-03-23T03:51:01.620Z,11.7
2023-03-23T03:52:01.509Z,11.7
2023-03-23T03:53:01.481Z,11.6
2023-03-23T03:54:01.389Z,11.6
2023-03-23T03:55:01.629Z,11.7
2023-03-23T03:56:01.552Z,11.7
2023-03-23T03:57:01.670Z,11.6
2023-03-23T03:58:01.579Z,11.6
2023-03-23T03:59:21.377Z,11.6
2023-03-23T04:00:02.721Z,11.6
2023-03-23T04:01:02.356Z,11.7
2023-03-23T04:02:02.135Z,11.6
2023-03-23T04:03:02.385Z,11.7
2023-03-23T04:04:02.012Z,11.7
2023-03-23T04:05:02.055Z,11.6
2023-03-23T04:06:01.900Z,11.6
2023-03-23T04:07:01.882Z,11.6
2023-03-23T04:08:09.443Z,11.6
2023-03-23T04:09:07.747Z,11.6
2023-03-23T04:10:01.403Z,11.6
2023-03-23T04:11:01.437Z,11.6
2023-03-23T04:12:02.744Z,11.6
2023-03-23T04:13:01.696Z,11.7
2023-03-23T04:14:02.167Z,11.6
2023-03-23T04:15:05.927Z,11.6
2023-03-23T04:16:07.419Z,11.6
2023-03-23T04:17:01.628Z,11.6
2023-03-23T04:18:02.024Z,11.5
2023-03-23T04:19:01.333Z,11.5
2023-03-23T04:20:01.421Z,11.6
2023-03-23T04:21:01.657Z,11.5
2023-03-23T04:22:01.756Z,11.6
2023-03-23T04:23:01.939Z,11.5
2023-03-23T04:24:02.089Z,11.6
2023-03-23T04:25:02.119Z,11.6
2023-03-23T04:26:01.466Z,11.6
2023-03-23T04:27:02.782Z,11.6
2023-03-23T04:28:01.748Z,11.5
2023-03-23T04:29:02.154Z,11.5
2023-03-23T04:30:01.836Z,11.5
2023-03-23T04:31:01.705Z,11.5
2023-03-23T04:32:01.330Z,11.6
2023-03-23T04:33:02.390Z,11.5
2023-03-23T04:34:01.260Z,11.6
2023-03-23T04:35:12.614Z,11.6
2023-03-23T04:36:02.143Z,11.5
2023-03-23T04:37:01.602Z,11.6
2023-03-23T04:38:01.447Z,11.6
2023-03-23T04:39:01.496Z,11.5
2023-03-23T04:40:01.298Z,11.6
2023-03-23T04:41:02.335Z,11.5
2023-03-23T04:42:02.202Z,11.5
2023-03-23T04:43:02.224Z,11.5
2023-03-23T04:44:02.114Z,11.5
2023-03-23T04:45:02.154Z,11.5
2023-03-23T04:46:02.054Z,11.5
2023-03-23T04:47:01.877Z,11.5
2023-03-23T04:48:01.921Z,11.5
2023-03-23T04:49:01.757Z,11.5
2023-03-23T04:50:01.760Z,11.6
2023-03-23T04:51:01.570Z,11.5
2023-03-23T04:52:01.978Z,11.5
2023-03-23T04:53:01.917Z,11.5
2023-03-23T04:54:01.801Z,11.5
2023-03-23T04:55:01.758Z,11.5
2023-03-23T04:56:01.732Z,11.5
2023-03-23T04:57:01.634Z,11.5
2023-03-23T04:58:01.693Z,11.5
2023-03-23T04:59:01.558Z,11.6
2023-03-23T05:00:02.596Z,11.6
2023-03-23T05:01:01.483Z,11.6
2023-03-23T05:02:13.753Z,11.6
2023-03-23T05:03:01.507Z,11.5
2023-03-23T05:04:01.545Z,11.6
2023-03-23T05:05:01.326Z,11.5
2023-03-23T05:06:02.368Z,11.5
2023-03-23T05:07:02.284Z,11.5
2023-03-23T05:08:02.308Z,11.5
2023-03-23T05:09:02.287Z,11.5
2023-03-23T05:10:02.286Z,11.5
2023-03-23T05:11:02.168Z,11.5
2023-03-23T05:12:02.264Z,11.6
2023-03-23T05:13:02.179Z,11.6
2023-03-23T05:14:02.245Z,11.6
2023-03-23T05:15:02.202Z,11.6
2023-03-23T05:16:02.093Z,11.7
2023-03-23T05:17:02.049Z,11.6
2023-03-23T05:18:02.011Z,11.6
2023-03-23T05:19:02.050Z,11.6
2023-03-23T05:20:01.912Z,11.7
2023-03-23T05:21:01.884Z,11.6
2023-03-23T05:22:01.916Z,11.6
2023-03-23T05:23:01.773Z,11.6
2023-03-23T05:24:01.817Z,11.6
2023-03-23T05:25:01.325Z,11.7
2023-03-23T05:26:02.354Z,11.8
2023-03-23T05:27:02.221Z,11.7
2023-03-23T05:28:02.368Z,11.7
2023-03-23T05:29:02.402Z,11.7
2023-03-23T05:30:02.302Z,11.8
2023-03-23T05:31:02.190Z,11.8
2023-03-23T05:32:02.025Z,11.8
2023-03-23T05:33:02.055Z,11.8
2023-03-23T05:34:01.894Z,11.9
2023-03-23T05:35:01.849Z,11.9
2023-03-23T05:36:01.841Z,11.9
2023-03-23T05:37:01.749Z,11.9
2023-03-23T05:38:02.183Z,11.9
2023-03-23T05:39:01.902Z,11.9
2023-03-23T05:40:01.817Z,12
2023-03-23T05:41:01.902Z,12
2023-03-23T05:42:01.750Z,12
2023-03-23T05:43:01.814Z,12
2023-03-23T05:44:01.678Z,12.1
2023-03-23T05:45:01.698Z,12.1
2023-03-23T05:46:01.522Z,12.1
2023-03-23T05:47:01.608Z,12.1
2023-03-23T05:48:01.662Z,12.1
2023-03-23T05:49:01.550Z,12.1
2023-03-23T05:50:01.509Z,12.2
2023-03-23T05:51:01.359Z,12.2
2023-03-23T05:52:01.390Z,12.2
2023-03-23T05:53:02.346Z,12.2
2023-03-23T05:54:02.254Z,12.2
2023-03-23T05:55:02.271Z,12.3
2023-03-23T05:56:02.151Z,12.3
2023-03-23T05:57:02.187Z,12.4
2023-03-23T05:58:02.069Z,12.4
2023-03-23T05:59:02.051Z,12.3
2023-03-23T06:00:01.986Z,12.4
2023-03-23T06:01:01.997Z,12.3
2023-03-23T06:02:02.032Z,12.4
2023-03-23T06:03:02.055Z,12.3
2023-03-23T06:04:01.886Z,12.3
2023-03-23T06:05:01.871Z,12.4
2023-03-23T06:06:01.836Z,12.4
2023-03-23T06:07:01.763Z,12.5
2023-03-23T06:08:01.821Z,12.4
2023-03-23T06:09:01.673Z,12.4
2023-03-23T06:10:01.664Z,12.5
2023-03-23T06:11:01.537Z,12.5
2023-03-23T06:12:01.547Z,12.5
2023-03-23T06:13:01.388Z,12.6
2023-03-23T06:14:01.417Z,12.6
2023-03-23T06:15:02.380Z,12.5
2023-03-23T06:16:02.317Z,12.5
2023-03-23T06:17:01.324Z,12.5
2023-03-23T06:18:01.396Z,12.5
2023-03-23T06:19:02.331Z,12.5
2023-03-23T06:20:02.189Z,12.5
2023-03-23T06:21:02.335Z,12.6
2023-03-23T06:22:02.252Z,12.6
2023-03-23T06:23:02.160Z,12.6
2023-03-23T06:24:02.114Z,12.5
2023-03-23T06:25:02.170Z,12.7
2023-03-23T06:26:04.343Z,12.6
2023-03-23T06:27:01.491Z,12.7
2023-03-23T06:28:01.539Z,12.7
2023-03-23T06:29:01.376Z,12.7
2023-03-23T06:30:01.460Z,12.7
2023-03-23T06:31:02.420Z,12.7
2023-03-23T06:32:01.345Z,12.7
2023-03-23T06:33:01.337Z,12.7
2023-03-23T06:34:02.305Z,12.7
2023-03-23T06:35:02.243Z,12.8
2023-03-23T06:36:02.315Z,12.8
2023-03-23T06:37:02.153Z,12.7
2023-03-23T06:38:02.228Z,12.8
2023-03-23T06:39:02.088Z,12.9
2023-03-23T06:40:02.111Z,12.8
2023-03-23T06:41:01.945Z,12.9
2023-03-23T06:42:01.865Z,12.9
2023-03-23T06:43:01.887Z,12.9
2023-03-23T06:44:01.726Z,12.9
2023-03-23T06:45:01.772Z,12.9
2023-03-23T06:46:01.683Z,12.9
2023-03-23T06:47:01.529Z,12.9
2023-03-23T06:48:01.591Z,13
2023-03-23T06:49:01.425Z,13
2023-03-23T06:50:01.451Z,13
2023-03-23T06:51:01.315Z,13
2023-03-23T06:52:02.353Z,13
2023-03-23T06:53:02.225Z,13.1
2023-03-23T06:54:02.262Z,13.1
2023-03-23T06:55:02.099Z,13.1
2023-03-23T06:56:02.157Z,13.2
2023-03-23T06:57:02.011Z,13.2
2023-03-23T06:58:02.052Z,13.2
2023-03-23T06:59:01.904Z,13.1
2023-03-23T07:00:02.037Z,13.2
2023-03-23T07:01:02.061Z,13.3
2023-03-23T07:02:01.612Z,13.2
2023-03-23T07:03:01.639Z,13.3
2023-03-23T07:04:01.558Z,13.3
2023-03-23T07:05:01.530Z,13.3
2023-03-23T07:06:01.391Z,13.2
2023-03-23T07:07:01.459Z,13.2
2023-03-23T07:08:01.318Z,13.3
2023-03-23T07:09:02.402Z,13.3
2023-03-23T07:10:02.285Z,13.3
2023-03-23T07:11:02.337Z,13.3
2023-03-23T07:12:02.148Z,13.3
2023-03-23T07:13:02.218Z,13.3
2023-03-23T07:14:02.117Z,13.4
2023-03-23T07:15:02.189Z,13.4
2023-03-23T07:16:02.018Z,13.3
2023-03-23T07:17:01.969Z,13.4
2023-03-23T07:18:02.030Z,13.4
2023-03-23T07:19:01.853Z,13.3
2023-03-23T07:20:01.829Z,13.3
2023-03-23T07:21:01.965Z,13.4
2023-03-23T07:22:01.691Z,13.4
2023-03-23T07:23:01.681Z,13.4
2023-03-23T07:24:01.569Z,13.3
2023-03-23T07:25:01.651Z,13.4
2023-03-23T07:26:01.502Z,13.3
2023-03-23T07:27:01.499Z,13.4
2023-03-23T07:28:01.395Z,13.4
2023-03-23T07:29:01.435Z,13.5
2023-03-23T07:30:01.263Z,13.5
2023-03-23T07:31:02.352Z,13.5
2023-03-23T07:32:02.284Z,13.5
2023-03-23T07:33:02.310Z,13.6
2023-03-23T07:34:02.208Z,13.6
2023-03-23T07:35:02.304Z,13.6
2023-03-23T07:36:02.233Z,13.5
2023-03-23T07:37:02.237Z,13.5
2023-03-23T07:38:02.159Z,13.5
2023-03-23T07:39:02.144Z,13.5
2023-03-23T07:40:02.013Z,13.6
2023-03-23T07:41:02.053Z,13.6
2023-03-23T07:42:01.887Z,13.7
2023-03-23T07:43:01.826Z,13.6
2023-03-23T07:44:01.904Z,13.5
2023-03-23T07:45:01.778Z,13.6
2023-03-23T07:46:01.829Z,13.6
2023-03-23T07:47:01.372Z,13.6
2023-03-23T07:48:03.572Z,13.6
2023-03-23T07:49:01.760Z,13.7
2023-03-23T07:50:01.855Z,13.6
2023-03-23T07:51:01.683Z,13.7
2023-03-23T07:52:01.697Z,13.7
2023-03-23T07:53:01.588Z,13.7
2023-03-23T07:54:01.608Z,13.7
2023-03-23T07:55:01.392Z,13.7
2023-03-23T07:56:01.431Z,13.8
2023-03-23T07:57:02.382Z,13.8
2023-03-23T07:58:02.247Z,14
2023-03-23T07:59:02.248Z,13.9
2023-03-23T08:00:02.323Z,14
2023-03-23T08:01:02.414Z,14
2023-03-23T08:02:01.983Z,14.1
2023-03-23T08:03:02.016Z,14
2023-03-23T08:04:01.878Z,13.9
2023-03-23T08:05:01.834Z,13.9
2023-03-23T08:06:01.892Z,14.1
2023-03-23T08:07:01.773Z,14
2023-03-23T08:08:01.683Z,13.9
2023-03-23T08:09:01.734Z,14
2023-03-23T08:10:01.556Z,14
2023-03-23T08:11:01.585Z,14
2023-03-23T08:12:01.476Z,14.1
2023-03-23T08:13:01.512Z,14
2023-03-23T08:14:01.458Z,13.9
2023-03-23T08:15:01.426Z,13.9
2023-03-23T08:16:01.371Z,13.9
2023-03-23T08:17:01.542Z,14
2023-03-23T08:18:01.561Z,14.1
2023-03-23T08:19:08.304Z,14.1
2023-03-23T08:20:01.543Z,14.3
2023-03-23T08:21:01.597Z,14.4
2023-03-23T08:22:01.453Z,14.6
2023-03-23T08:23:01.481Z,14.8
2023-03-23T08:24:01.337Z,14.9
2023-03-23T08:25:01.348Z,15
2023-03-23T08:26:02.337Z,15.3
2023-03-23T08:27:02.201Z,15.3
2023-03-23T08:28:02.260Z,15.2
2023-03-23T08:29:02.095Z,15.5
2023-03-23T08:30:02.135Z,15.6
2023-03-23T08:31:01.955Z,16
2023-03-23T08:32:01.914Z,15.9
2023-03-23T08:33:01.908Z,15.8
2023-03-23T08:34:01.791Z,15.9
2023-03-23T08:35:01.745Z,15.8
2023-03-23T08:36:01.793Z,15.8
2023-03-23T08:37:01.643Z,15.7
2023-03-23T08:38:01.712Z,15.7
2023-03-23T08:39:01.567Z,15.7
2023-03-23T08:40:01.645Z,15.8
2023-03-23T08:41:01.466Z,15.8
2023-03-23T08:42:01.556Z,15.9
2023-03-23T08:43:01.434Z,15.8
2023-03-23T08:44:01.448Z,15.9
2023-03-23T08:45:01.244Z,16
2023-03-23T08:46:02.355Z,16.3
2023-03-23T08:47:02.394Z,16.6
2023-03-23T08:48:02.282Z,16.2
2023-03-23T08:49:02.214Z,16.3
2023-03-23T08:50:02.320Z,16.1
2023-03-23T08:51:02.149Z,16.5
2023-03-23T08:52:02.187Z,16.6
2023-03-23T08:53:02.117Z,16.6
2023-03-23T08:54:02.061Z,16.7
2023-03-23T08:55:01.984Z,17.2
2023-03-23T08:56:01.946Z,17.4
2023-03-23T08:57:01.986Z,17.3
2023-03-23T08:58:01.819Z,17.3
2023-03-23T08:59:01.799Z,16.9
2023-03-23T09:00:02.112Z,17
2023-03-23T09:01:01.954Z,17.2
2023-03-23T09:02:01.533Z,17.4
2023-03-23T09:03:01.578Z,17.2
2023-03-23T09:04:01.445Z,16.9
2023-03-23T09:05:01.479Z,16.8
2023-03-23T09:06:01.386Z,16.6
2023-03-23T09:07:01.421Z,16.9
2023-03-23T09:08:02.382Z,16.9
2023-03-23T09:09:02.241Z,16.5
2023-03-23T09:10:02.297Z,17
2023-03-23T09:11:02.170Z,17.2
2023-03-23T09:12:02.270Z,17.2
2023-03-23T09:13:02.117Z,16.7
2023-03-23T09:14:02.172Z,17
2023-03-23T09:15:02.034Z,17
2023-03-23T09:16:02.191Z,17
2023-03-23T09:17:01.316Z,17.1
2023-03-23T09:18:02.472Z,17.1
2023-03-23T09:19:02.234Z,17.1
2023-03-23T09:20:02.297Z,17.3
2023-03-23T09:21:02.183Z,17.4
2023-03-23T09:22:02.146Z,17.5
2023-03-23T09:23:02.048Z,17.5
2023-03-23T09:24:02.224Z,17.7
2023-03-23T09:25:01.986Z,17.9
2023-03-23T09:26:02.062Z,17.8
2023-03-23T09:27:01.917Z,17.9
2023-03-23T09:28:01.828Z,17.5
2023-03-23T09:29:01.886Z,17.7
2023-03-23T09:30:01.702Z,18.2
2023-03-23T09:31:01.787Z,18
2023-03-23T09:32:01.748Z,18.1
2023-03-23T09:33:02.035Z,17.9
2023-03-23T09:34:01.665Z,18
2023-03-23T09:35:01.715Z,17.9
2023-03-23T09:36:01.583Z,17.9
2023-03-23T09:37:01.599Z,17.8
2023-03-23T09:38:01.444Z,18.1
2023-03-23T09:39:01.461Z,18.1
2023-03-23T09:40:06.582Z,18
2023-03-23T09:41:01.874Z,18.1
2023-03-23T09:42:01.943Z,17.7
2023-03-23T09:43:01.775Z,18
2023-03-23T09:44:01.739Z,17.8
2023-03-23T09:45:01.848Z,18
2023-03-23T09:46:01.709Z,18
2023-03-23T09:47:01.300Z,17.9
2023-03-23T09:48:02.395Z,17.8
2023-03-23T09:49:02.242Z,17.6
2023-03-23T09:50:02.269Z,17.7
2023-03-23T09:51:02.259Z,18
2023-03-23T09:52:02.160Z,18.1
2023-03-23T09:53:02.250Z,18.3
2023-03-23T09:54:02.102Z,18.4
2023-03-23T09:55:02.174Z,18.8
2023-03-23T09:56:02.080Z,18.8
2023-03-23T09:57:02.110Z,19
2023-03-23T09:58:01.970Z,19.2
2023-03-23T09:59:01.937Z,19.2
2023-03-23T10:00:02.074Z,19
2023-03-23T10:01:01.965Z,19
2023-03-23T10:02:02.002Z,19
2023-03-23T10:03:02.026Z,19
2023-03-23T10:04:01.906Z,19.3
2023-03-23T10:05:01.926Z,19.1
2023-03-23T10:06:01.976Z,18.9
2023-03-23T10:07:01.904Z,19.1
2023-03-23T10:08:01.851Z,19.1
2023-03-23T10:09:01.914Z,18.7
2023-03-23T10:10:01.687Z,18.9
2023-03-23T10:11:01.757Z,18.9
2023-03-23T10:12:01.593Z,19
2023-03-23T10:13:01.664Z,19.1
2023-03-23T10:14:01.504Z,19.2
2023-03-23T10:15:01.534Z,19.4
2023-03-23T10:16:01.417Z,19.4
2023-03-23T10:17:01.578Z,19.4
2023-03-23T10:18:01.592Z,19.4
2023-03-23T10:19:01.465Z,19.4
2023-03-23T10:20:01.491Z,19.2
2023-03-23T10:21:01.324Z,19.1
2023-03-23T10:22:02.375Z,19
2023-03-23T10:23:02.261Z,19.3
2023-03-23T10:24:02.318Z,19.7
2023-03-23T10:25:02.190Z,19.8
2023-03-23T10:26:02.285Z,19.7
2023-03-23T10:27:02.131Z,19.6
2023-03-23T10:28:02.251Z,19.4
2023-03-23T10:29:02.131Z,19
2023-03-23T10:30:02.215Z,19.4
2023-03-23T10:31:02.024Z,19.4
2023-03-23T10:32:01.918Z,19.2
2023-03-23T10:33:01.965Z,19.1
2023-03-23T10:34:01.816Z,18.9
2023-03-23T10:35:01.774Z,18.8
2023-03-23T10:36:01.840Z,18.7
2023-03-23T10:37:01.664Z,18.6
2023-03-23T10:38:01.721Z,18.5
2023-03-23T10:39:01.566Z,18.4
2023-03-23T10:40:01.598Z,18.4
2023-03-23T10:41:01.442Z,18.6
2023-03-23T10:42:01.517Z,18.5
2023-03-23T10:43:01.340Z,18.5
2023-03-23T10:44:01.355Z,18.5
2023-03-23T10:45:02.386Z,18.2
2023-03-23T10:46:02.454Z,18.2
2023-03-23T10:47:02.277Z,18.1
2023-03-23T10:48:02.183Z,18.1
2023-03-23T10:49:02.101Z,18.1
2023-03-23T10:50:02.174Z,18.1
2023-03-23T10:51:01.980Z,17.9
2023-03-23T10:52:01.935Z,18
2023-03-23T10:53:01.995Z,18
2023-03-23T10:54:01.833Z,17.8
2023-03-23T10:55:01.731Z,17.8
2023-03-23T10:56:01.761Z,17.8
2023-03-23T10:57:03.499Z,17.8
2023-03-23T10:58:01.693Z,17.8
2023-03-23T10:59:01.739Z,17.7
2023-03-23T11:00:02.027Z,17.7
2023-03-23T11:01:01.960Z,17.7
2023-03-23T11:02:01.328Z,17.7
2023-03-23T11:03:01.347Z,17.7
2023-03-23T11:04:02.379Z,17.6
2023-03-23T11:05:07.979Z,17.5
2023-03-23T11:06:01.452Z,17.5
2023-03-23T11:07:01.453Z,17.6
2023-03-23T11:08:01.363Z,17.5
2023-03-23T11:09:02.338Z,17.4
2023-03-23T11:10:02.364Z,17.5
2023-03-23T11:11:02.201Z,17.5
2023-03-23T11:12:02.773Z,17.4
2023-03-23T11:13:02.197Z,17.4
2023-03-23T11:14:02.223Z,17.4
2023-03-23T11:15:02.129Z,17.4
2023-03-23T11:16:02.166Z,17.4
2023-03-23T11:17:10.410Z,17.3
2023-03-23T11:18:01.574Z,17.3
2023-03-23T11:19:01.602Z,17.2
2023-03-23T11:20:01.441Z,17.3
2023-03-23T11:21:01.489Z,17.4
2023-03-23T11:22:01.353Z,17.3
2023-03-23T11:23:01.414Z,17.4
2023-03-23T11:24:09.472Z,17.4
2023-03-23T11:25:01.893Z,17.5
2023-03-23T11:26:01.946Z,17.4
2023-03-23T11:27:01.793Z,17.2
2023-03-23T11:28:01.742Z,17.4
2023-03-23T11:29:01.772Z,17.3
2023-03-23T11:30:01.564Z,17.4
2023-03-23T11:31:01.582Z,17.4
2023-03-23T11:32:01.625Z,17.5
2023-03-23T11:33:01.693Z,17.3
2023-03-23T11:34:06.211Z,17.2
2023-03-23T11:35:13.996Z,17.4
2023-03-23T11:36:01.974Z,17.2
2023-03-23T11:37:01.962Z,17.2
2023-03-23T11:38:01.856Z,17.3
2023-03-23T11:39:01.777Z,17.2
2023-03-23T11:40:01.855Z,17.1
2023-03-23T11:41:01.686Z,17.2
2023-03-23T11:42:09.159Z,17.2
2023-03-23T11:43:01.366Z,17.2
2023-03-23T11:44:01.417Z,17.2
2023-03-23T11:45:02.402Z,17.2
2023-03-23T11:46:02.264Z,17.2
2023-03-23T11:47:01.446Z,17.2
2023-03-23T11:48:01.468Z,17.1
2023-03-23T11:49:01.326Z,17.2
2023-03-23T11:50:02.399Z,17.3
2023-03-23T11:51:02.226Z,17.2
2023-03-23T11:52:02.298Z,17.3
2023-03-23T11:53:02.166Z,17.3
2023-03-23T11:54:02.249Z,17.2
2023-03-23T11:55:02.091Z,17.3
2023-03-23T11:56:02.192Z,17.4
2023-03-23T11:57:02.097Z,17.4
2023-03-23T11:58:02.133Z,17.3
2023-03-23T11:59:01.977Z,17.4
2023-03-23T12:00:02.894Z,17.5
2023-03-23T12:01:01.883Z,17.5
2023-03-23T12:02:11.691Z,17.5
2023-03-23T12:03:01.963Z,17.6
2023-03-23T12:04:02.018Z,17.5
2023-03-23T12:05:01.880Z,17.5
2023-03-23T12:06:01.825Z,17.8
2023-03-23T12:07:01.832Z,17.6
2023-03-23T12:08:01.691Z,17.6
2023-03-23T12:09:01.722Z,17.7
2023-03-23T12:10:01.588Z,17.7
2023-03-23T12:11:01.947Z,17.7
2023-03-23T12:12:01.697Z,17.9
2023-03-23T12:13:01.709Z,17.7
2023-03-23T12:14:01.546Z,17.7
2023-03-23T12:15:01.603Z,17.7
2023-03-23T12:16:01.412Z,17.8
2023-03-23T12:17:01.433Z,17.8
2023-03-23T12:18:01.529Z,17.8
2023-03-23T12:19:01.427Z,17.8
2023-03-23T12:20:01.446Z,17.9
2023-03-23T12:21:01.288Z,17.8
2023-03-23T12:22:02.352Z,17.7
2023-03-23T12:23:02.213Z,17.7
2023-03-23T12:24:03.136Z,17.7
2023-03-23T12:25:01.806Z,17.9
2023-03-23T12:26:01.858Z,17.8
2023-03-23T12:27:01.697Z,17.8
2023-03-23T12:28:01.720Z,17.9
2023-03-23T12:29:01.573Z,17.8
2023-03-23T12:30:01.632Z,17.8
2023-03-23T12:31:01.436Z,17.8
2023-03-23T12:32:01.482Z,17.8
2023-03-23T12:33:01.530Z,17.8
2023-03-23T12:34:01.379Z,17.8
2023-03-23T12:35:01.511Z,17.7
2023-03-23T12:36:01.410Z,17.6
2023-03-23T12:37:01.405Z,17.6
2023-03-23T12:38:02.369Z,17.7
2023-03-23T12:39:02.246Z,17.7
2023-03-23T12:40:02.333Z,17.7
2023-03-23T12:41:02.224Z,17.7
2023-03-23T12:42:02.205Z,17.6
2023-03-23T12:43:02.120Z,17.7
2023-03-23T12:44:02.197Z,17.6
2023-03-23T12:45:02.057Z,17.7
2023-03-23T12:46:02.076Z,17.7
2023-03-23T12:47:02.005Z,17.6
2023-03-23T12:48:01.946Z,17.5
2023-03-23T12:49:02.006Z,17.6
2023-03-23T12:50:01.858Z,17.5
2023-03-23T12:51:01.823Z,17.6
2023-03-23T12:52:01.852Z,17.7
2023-03-23T12:53:01.727Z,17.6
2023-03-23T12:54:01.736Z,17.6
2023-03-23T12:55:01.638Z,17.7
2023-03-23T12:56:01.693Z,17.8
2023-03-23T12:57:01.513Z,17.8
2023-03-23T12:58:01.555Z,17.7
2023-03-23T12:59:01.438Z,17.8
2023-03-23T13:00:01.785Z,17.8
2023-03-23T13:01:01.652Z,17.7
2023-03-23T13:02:02.273Z,17.8
2023-03-23T13:03:02.342Z,17.9
2023-03-23T13:04:02.179Z,18
2023-03-23T13:05:02.236Z,18
2023-03-23T13:06:02.096Z,17.7
2023-03-23T13:07:02.173Z,17.7
2023-03-23T13:08:02.008Z,17.7
2023-03-23T13:09:02.069Z,17.7
2023-03-23T13:10:01.890Z,17.8
2023-03-23T13:11:02.169Z,17.6
2023-03-23T13:12:02.253Z,17.6
2023-03-23T13:13:02.104Z,17.6
2023-03-23T13:14:02.205Z,17.8
2023-03-23T13:15:02.072Z,17.8
2023-03-23T13:16:02.118Z,17.7
2023-03-23T13:17:02.072Z,17.9
2023-03-23T13:18:02.049Z,17.9
2023-03-23T13:19:02.045Z,18
2023-03-23T13:20:01.960Z,17.9
2023-03-23T13:21:01.878Z,17.9
2023-03-23T13:22:01.879Z,17.8
2023-03-23T13:23:01.763Z,17.7
2023-03-23T13:24:01.757Z,17.8